Delaware — WDJ3161 — position and weather

sailwx.info

Track history (hours):
 
Tides and Currents Weather Stations Pressure Air Temp Water Temp Dewpoint Dewpoint Depression Visibility Wind Speed Wind Dir Waves Ship Positions

Delaware

Owner: Vane Line Bunkering, Inc., Philadelphia, PA. More information available from US FCC via Universal Licensing System and Coast Guard Vessel Documentation Center.

Last reported at 2017-Oct-18 02:09 UTC. Time now 2017-Oct-18 20:20 UTC.
Position N 40°58' W 073°54'.

Length 32 m.

Type: Tug. MMSI: 367303000.

Date/timePositionNaut miles runAvg speedWind from/ knotsBaromVisibWave heightAir tempDewpointWater temp
2017-Oct-18 02:09N 40°58' W 073°54'1 8.2
2017-Oct-18 02:00N 40°57' W 073°54'4 8.3
2017-Oct-18 01:30N 40°53' W 073°56'4 8.8
2017-Oct-18 01:00N 40°49' W 073°58'5 9.2
2017-Oct-18 00:30N 40°45' W 074°01'4 9.0
2017-Oct-18 00:00N 40°40' W 074°03'3 5.8
2017-Oct-17 23:30N 40°39' W 074°06'1 1.6
2017-Oct-17 23:00N 40°39' W 074°07'0 0.0
2017-Oct-17 22:30N 40°39' W 074°07'0 0.0
2017-Oct-17 22:00N 40°39' W 074°07'0 0.0
2017-Oct-17 21:30N 40°39' W 074°07'0 0.0
2017-Oct-17 21:00N 40°39' W 074°07'0 0.0
2017-Oct-17 20:30N 40°39' W 074°07'0 0.0
2017-Oct-17 20:00N 40°39' W 074°07'0 0.0
2017-Oct-17 19:30N 40°39' W 074°07'0 0.0
2017-Oct-17 19:00N 40°39' W 074°07'1 1.8
2017-Oct-17 18:30N 40°39' W 074°06'0 0.0
2017-Oct-17 18:00N 40°39' W 074°06'0 0.0
2017-Oct-17 17:30N 40°39' W 074°06'0 0.0
2017-Oct-17 17:00N 40°39' W 074°06'0 0.0
2017-Oct-17 16:30N 40°39' W 074°06'0 0.0
2017-Oct-17 16:00N 40°39' W 074°06'0 0.0
2017-Oct-17 15:30N 40°39' W 074°06'0 0.0
2017-Oct-17 15:00N 40°39' W 074°06'1 1.8
2017-Oct-17 14:30N 40°39' W 074°07'2 4.6
2017-Oct-17 14:00N 40°39' W 074°04'3 6.2
2017-Oct-17 13:30N 40°40' W 074°00'0 0.0
2017-Oct-17 13:00N 40°40' W 074°00'0 0.0
2017-Oct-17 12:30N 40°40' W 074°00'0 0.0
2017-Oct-17 12:00N 40°40' W 074°00'0 0.0
2017-Oct-17 11:30N 40°40' W 074°00'0 0.0
2017-Oct-17 11:00N 40°40' W 074°00'0 0.0
2017-Oct-17 10:30N 40°40' W 074°00'0 0.0
2017-Oct-17 10:00N 40°40' W 074°00'0 0.0
2017-Oct-17 09:30N 40°40' W 074°00'0 0.0
2017-Oct-17 09:00N 40°40' W 074°00'0 0.0
2017-Oct-17 08:30N 40°40' W 074°00'0 0.0
2017-Oct-17 08:00N 40°40' W 074°00'0 0.0
2017-Oct-17 07:30N 40°40' W 074°00'3 6.6
2017-Oct-17 07:00N 40°39' W 074°04'2 4.2
2017-Oct-17 06:30N 40°39' W 074°07'0 0.4
2017-Oct-17 06:00N 40°39' W 074°07'0 0.3
2017-Oct-17 05:30N 40°39' W 074°06'1 1.2
2017-Oct-17 05:01N 40°39' W 074°06'3 5.3
2017-Oct-17 04:30N 40°40' W 074°03'5 9.3
2017-Oct-17 04:00N 40°45' W 074°01'3 6.0
2017-Oct-17 03:30N 40°47' W 073°59'0 0.1
2017-Oct-17 03:00N 40°47' W 073°59'0 0.0
2017-Oct-17 02:30N 40°47' W 073°59'0 0.0
2017-Oct-17 02:00N 40°47' W 073°59'0 0.4
2017-Oct-17 01:30N 40°48' W 073°59'0 0.1
2017-Oct-17 01:00N 40°48' W 073°59'0 0.0
2017-Oct-17 00:30N 40°48' W 073°59'0 0.0
2017-Oct-17 00:00N 40°48' W 073°59'0 0.0
2017-Oct-16 23:30N 40°48' W 073°59'0 0.0
2017-Oct-16 23:00N 40°48' W 073°59'0 0.0
2017-Oct-16 22:30N 40°48' W 073°59'0 0.1
2017-Oct-16 22:00N 40°48' W 073°59'0 0.2
2017-Oct-16 21:30N 40°48' W 073°59'0 0.1
2017-Oct-16 21:00N 40°48' W 073°59'0 0.0
2017-Oct-16 20:30N 40°48' W 073°59'0 0.1
2017-Oct-16 20:00N 40°48' W 073°59'0 0.0
2017-Oct-16 19:30N 40°48' W 073°59'0 0.1
2017-Oct-16 19:00N 40°48' W 073°59'0 0.0
2017-Oct-16 18:30N 40°48' W 073°59'0 0.0
2017-Oct-16 18:00N 40°48' W 073°59'0 0.0
2017-Oct-16 17:30N 40°48' W 073°59'0 0.0
2017-Oct-16 17:00N 40°48' W 073°59'0 0.0
2017-Oct-16 16:30N 40°48' W 073°59'0 0.0
2017-Oct-16 16:00N 40°48' W 073°59'0 0.0
2017-Oct-16 15:30N 40°48' W 073°59'0 0.0
2017-Oct-16 15:00N 40°48' W 073°59'0 0.0
2017-Oct-16 14:00N 40°48' W 073°59'0 0.1
2017-Oct-16 13:30N 40°48' W 073°59'0 0.1
2017-Oct-16 13:00N 40°48' W 073°59'0 0.2
2017-Oct-16 12:30N 40°48' W 073°59'0 0.0
2017-Oct-16 12:00N 40°48' W 073°59'0 0.1
2017-Oct-16 11:30N 40°48' W 073°59'0 0.0
2017-Oct-16 11:00N 40°48' W 073°59'0 0.0
2017-Oct-16 10:30N 40°48' W 073°59'0 0.1
2017-Oct-16 10:00N 40°48' W 073°59'0 0.0
2017-Oct-16 09:30N 40°48' W 073°59'0 0.0
2017-Oct-16 09:00N 40°48' W 073°59'0 0.1
2017-Oct-16 08:30N 40°48' W 073°59'0 0.1
2017-Oct-16 08:00N 40°48' W 073°59'0 0.0
2017-Oct-16 07:30N 40°48' W 073°59'0 0.1
2017-Oct-16 07:00N 40°48' W 073°59'0 0.0
2017-Oct-16 06:30N 40°48' W 073°59'0 0.0
2017-Oct-16 06:00N 40°48' W 073°59'0 0.0
2017-Oct-16 05:30N 40°48' W 073°59'0 0.0
2017-Oct-16 05:00N 40°48' W 073°59'0 0.0
2017-Oct-16 04:30N 40°48' W 073°59'0 0.0
2017-Oct-16 04:00N 40°48' W 073°59'0 0.0
2017-Oct-16 03:30N 40°48' W 073°59'0 0.2
2017-Oct-16 02:30N 40°48' W 073°59'0 0.0
2017-Oct-16 02:00N 40°48' W 073°59'0 0.0
2017-Oct-16 01:30N 40°48' W 073°59'0 0.0
2017-Oct-16 01:00N 40°48' W 073°59'2 4.7
2017-Oct-16 00:30N 40°46' W 074°01'4 7.3
2017-Oct-16 00:00N 40°42' W 074°00'4 7.0
2017-Oct-15 23:30N 40°45' W 073°58'3 6.6
2017-Oct-15 23:00N 40°48' W 073°55'3 6.1
2017-Oct-15 22:30N 40°48' W 073°51'3 6.1
2017-Oct-15 21:59N 40°49' W 073°47'6 0.4
2017-Oct-15 04:46N 40°54' W 073°42'4 8.4
2017-Oct-15 04:15N 40°51' W 073°46'3 8.0
2017-Oct-15 03:53N 40°48' W 073°47'3 7.7
2017-Oct-15 03:30N 40°48' W 073°51'3 5.0
2017-Oct-15 03:00N 40°48' W 073°54'0 0.0
2017-Oct-15 02:30N 40°48' W 073°54'0 0.0
2017-Oct-15 02:00N 40°48' W 073°54'0 0.0
2017-Oct-15 01:30N 40°48' W 073°54'0 0.0
2017-Oct-15 01:00N 40°48' W 073°54'0 0.0
2017-Oct-15 00:30N 40°48' W 073°54'0 0.0
2017-Oct-15 00:00N 40°48' W 073°54'0 0.0
2017-Oct-14 23:29N 40°48' W 073°54'0 0.0
2017-Oct-14 23:00N 40°48' W 073°54'0 0.0
2017-Oct-14 21:42N 40°48' W 073°54'0 0.0
2017-Oct-14 21:30N 40°48' W 073°54'0 0.0
2017-Oct-14 20:46N 40°48' W 073°54'0 0.0
2017-Oct-14 20:29N 40°48' W 073°54'0 0.0
2017-Oct-14 20:00N 40°48' W 073°54'0 0.0
2017-Oct-14 19:30N 40°48' W 073°54'0 0.0
2017-Oct-14 19:00N 40°48' W 073°54'0 0.0
2017-Oct-14 18:28N 40°48' W 073°54'0 0.0
2017-Oct-14 18:00N 40°48' W 073°54'0 0.0
2017-Oct-14 17:29N 40°48' W 073°54'0 0.0
2017-Oct-14 16:53N 40°48' W 073°54'0 0.5
2017-Oct-14 16:29N 40°48' W 073°55'4 7.5
2017-Oct-14 16:00N 40°45' W 073°58'3 6.2
2017-Oct-14 15:30N 40°42' W 073°60'3 6.5
2017-Oct-14 15:00N 40°40' W 074°02'0 0.6
2017-Oct-14 14:30N 40°40' W 074°03'0 0.0
2017-Oct-14 14:00N 40°40' W 074°03'0 0.0
2017-Oct-14 13:30N 40°40' W 074°03'0 0.1
2017-Oct-14 13:00N 40°40' W 074°03'0 0.1
2017-Oct-14 12:30N 40°40' W 074°03'0 0.0
2017-Oct-14 12:00N 40°40' W 074°03'0 0.0
2017-Oct-14 11:30N 40°40' W 074°03'0 0.0
2017-Oct-14 11:00N 40°40' W 074°03'0 0.1
2017-Oct-14 10:30N 40°40' W 074°03'0 0.2
2017-Oct-14 10:00N 40°40' W 074°03'1 3.0
2017-Oct-14 09:30N 40°39' W 074°05'3 7.0
2017-Oct-14 09:00N 40°39' W 074°09'3 5.0
2017-Oct-14 08:30N 40°38' W 074°12'1 2.9
2017-Oct-14 08:00N 40°36' W 074°12'0 0.0
2017-Oct-14 07:30N 40°36' W 074°12'0 0.0
2017-Oct-14 07:00N 40°36' W 074°12'0 0.0
2017-Oct-14 06:30N 40°36' W 074°12'0 0.0
2017-Oct-14 06:00N 40°36' W 074°12'0 0.0
2017-Oct-14 05:30N 40°36' W 074°12'0 0.0
2017-Oct-14 04:59N 40°36' W 074°12'0 0.0
2017-Oct-14 04:30N 40°36' W 074°12'0 0.0
2017-Oct-14 04:00N 40°36' W 074°12'0 0.0
2017-Oct-14 03:30N 40°36' W 074°12'0 0.0
2017-Oct-14 03:00N 40°36' W 074°12'0 0.0
2017-Oct-14 02:30N 40°36' W 074°12'0 0.0
2017-Oct-14 02:00N 40°36' W 074°12'0 0.0
2017-Oct-14 01:30N 40°36' W 074°12'0 0.0
2017-Oct-14 01:00N 40°36' W 074°12'0 0.0
2017-Oct-14 00:29N 40°36' W 074°12'0 0.0
2017-Oct-14 00:00N 40°36' W 074°12'0 0.0
2017-Oct-13 23:30N 40°36' W 074°12'0 0.0
2017-Oct-13 23:00N 40°36' W 074°12'0 0.0
2017-Oct-13 22:30N 40°36' W 074°12'0 0.0
2017-Oct-13 22:00N 40°36' W 074°12'0 0.0
2017-Oct-13 21:30N 40°36' W 074°12'0 0.0
2017-Oct-13 21:00N 40°36' W 074°12'0 0.0
2017-Oct-13 20:30N 40°36' W 074°12'0 0.0
2017-Oct-13 20:00N 40°36' W 074°12'0 0.0
2017-Oct-13 19:30N 40°36' W 074°12'0 0.0
2017-Oct-13 19:00N 40°36' W 074°12'0 0.0
2017-Oct-13 18:30N 40°36' W 074°12'0 0.0
2017-Oct-13 18:00N 40°36' W 074°12'0 0.1
2017-Oct-13 17:30N 40°36' W 074°12'2 4.3
2017-Oct-13 17:00N 40°34' W 074°13'1 2.1
2017-Oct-13 16:26N 40°35' W 074°12'1 2.1
2017-Oct-13 15:59N 40°36' W 074°12'2 3.9
2017-Oct-13 15:30N 40°38' W 074°12'2 4.3
2017-Oct-13 15:00N 40°39' W 074°09'3 6.9
2017-Oct-13 14:30N 40°39' W 074°05'4 8.9
2017-Oct-13 14:00N 40°43' W 074°02'510.6
2017-Oct-13 13:30N 40°48' W 073°59'510.5
2017-Oct-13 13:00N 40°53' W 073°56'3 0.1
2017-Oct-11 18:53N 40°55' W 073°55'4 9.2
2017-Oct-11 18:30N 40°52' W 073°56'5 9.7
2017-Oct-11 18:00N 40°48' W 073°59'5 9.3
2017-Oct-11 17:30N 40°43' W 074°01'4 8.7
2017-Oct-11 17:00N 40°39' W 074°04'1 0.1
2017-Oct-11 00:00N 40°39' W 074°05'1 2.1
2017-Oct-10 23:30N 40°39' W 074°04'2 3.7
2017-Oct-10 23:00N 40°40' W 074°03'5 9.7
2017-Oct-10 22:30N 40°44' W 073°58'5 9.8
2017-Oct-10 22:00N 40°48' W 073°55'0 0.6
2017-Oct-10 21:30N 40°48' W 073°54'3 6.7
2017-Oct-10 21:00N 40°46' W 073°57'4 7.1
2017-Oct-10 20:30N 40°42' W 073°59'4 7.2
2017-Oct-10 20:00N 40°40' W 074°03'0 0.0
2017-Oct-10 19:30N 40°40' W 074°03'0 0.1
2017-Oct-10 19:00N 40°40' W 074°03'2 4.8
2017-Oct-10 18:30N 40°42' W 074°00'4 8.2
2017-Oct-10 18:00N 40°45' W 073°58'4 7.2
2017-Oct-10 17:30N 40°48' W 073°54'3 5.3
2017-Oct-10 17:00N 40°48' W 073°51'3 5.6
2017-Oct-10 16:30N 40°48' W 073°47'2 0.1
2017-Oct-09 11:14N 40°50' W 073°46'2 8.2
2017-Oct-09 10:58N 40°48' W 073°47'4 8.0
2017-Oct-09 10:30N 40°48' W 073°52'3 5.9
2017-Oct-09 10:00N 40°47' W 073°56'2 4.2
2017-Oct-09 09:30N 40°45' W 073°58'2 4.9
2017-Oct-09 09:00N 40°43' W 073°58'2 4.5
2017-Oct-09 08:30N 40°41' W 074°00'3 5.3
2017-Oct-09 08:00N 40°40' W 074°03'3 5.1
2017-Oct-09 07:30N 40°39' W 074°06'3 6.6
2017-Oct-09 07:00N 40°39' W 074°11'3 5.3
2017-Oct-09 06:30N 40°36' W 074°12'1 0.2
2017-Oct-09 01:50N 40°35' W 074°12'0 0.0
2017-Oct-09 01:25N 40°35' W 074°12'0 0.2
2017-Oct-09 00:58N 40°35' W 074°12'0 0.2
2017-Oct-09 00:29N 40°35' W 074°12'0 0.0
2017-Oct-08 23:20N 40°35' W 074°12'0 0.0
2017-Oct-08 23:00N 40°35' W 074°12'0 0.0
2017-Oct-08 22:29N 40°35' W 074°12'0 0.0
2017-Oct-08 21:59N 40°35' W 074°12'0 0.0
2017-Oct-08 21:29N 40°35' W 074°12'0 0.0
2017-Oct-08 21:00N 40°35' W 074°12'0 0.0
2017-Oct-08 20:30N 40°35' W 074°12'0 0.0
2017-Oct-08 20:00N 40°35' W 074°12'0 0.0
2017-Oct-08 19:30N 40°35' W 074°12'0 0.0
2017-Oct-08 19:00N 40°35' W 074°12'0 0.0
2017-Oct-08 18:29N 40°35' W 074°12'0 0.0
2017-Oct-08 17:59N 40°35' W 074°12'0 0.0
2017-Oct-08 17:28N 40°35' W 074°12'0 0.0
2017-Oct-08 16:58N 40°35' W 074°12'0 0.3
2017-Oct-08 16:18N 40°35' W 074°12'2 5.3
2017-Oct-08 16:00N 40°37' W 074°12'3 6.1
2017-Oct-08 15:30N 40°39' W 074°09'4 7.9
2017-Oct-08 15:00N 40°42' W 074°07'1 1.3
2017-Oct-08 14:30N 40°43' W 074°07'0 0.0
2017-Oct-08 14:00N 40°43' W 074°07'0 0.0
2017-Oct-08 13:30N 40°43' W 074°07'0 0.0
2017-Oct-08 13:00N 40°43' W 074°07'0 0.0
2017-Oct-08 12:30N 40°43' W 074°07'0 0.0
2017-Oct-08 12:00N 40°43' W 074°07'0 0.0
2017-Oct-08 11:30N 40°43' W 074°07'0 0.0
2017-Oct-08 11:00N 40°43' W 074°07'0 0.0
2017-Oct-08 10:30N 40°43' W 074°07'0 0.0
2017-Oct-08 10:00N 40°43' W 074°07'0 0.0
2017-Oct-08 09:30N 40°43' W 074°07'0 0.0
2017-Oct-08 09:00N 40°43' W 074°07'0 0.0
2017-Oct-08 08:30N 40°43' W 074°07'0 0.0
2017-Oct-08 08:00N 40°43' W 074°07'0 0.0
2017-Oct-08 07:30N 40°43' W 074°07'0 0.0
2017-Oct-08 07:00N 40°43' W 074°07'0 0.0
2017-Oct-08 06:30N 40°43' W 074°07'0 0.0
2017-Oct-08 06:00N 40°43' W 074°07'0 0.0
2017-Oct-08 05:30N 40°43' W 074°07'0 0.0
2017-Oct-08 05:00N 40°43' W 074°07'0 0.0
2017-Oct-08 04:30N 40°43' W 074°07'0 0.0
2017-Oct-08 04:00N 40°43' W 074°07'0 0.0
2017-Oct-08 03:30N 40°43' W 074°07'0 0.0
2017-Oct-08 03:00N 40°43' W 074°07'0 0.6
2017-Oct-08 02:30N 40°43' W 074°07'  
Track history (hours):
 
Tides and Currents Weather Stations Pressure Air Temp Water Temp Dewpoint Dewpoint Depression Visibility Wind Speed Wind Dir Waves Ship Positions

Delaware

Owner: Vane Line Bunkering, Inc., Philadelphia, PA. More information available from US FCC via Universal Licensing System and Coast Guard Vessel Documentation Center.

Last reported at 2017-Oct-18 02:09 UTC. Time now 2017-Oct-18 20:20 UTC.
Position N 40°58' W 073°54'.

Length 32 m.

Type: Tug. MMSI: 367303000.

Date/timePositionNaut miles runAvg speedWind from/ knotsBaromVisibWave heightAir tempDewpointWater temp
2017-Oct-18 02:09N 40°58' W 073°54'1 8.2
2017-Oct-18 02:00N 40°57' W 073°54'4 8.3
2017-Oct-18 01:30N 40°53' W 073°56'4 8.8
2017-Oct-18 01:00N 40°49' W 073°58'5 9.2
2017-Oct-18 00:30N 40°45' W 074°01'4 9.0
2017-Oct-18 00:00N 40°40' W 074°03'3 5.8
2017-Oct-17 23:30N 40°39' W 074°06'1 1.6
2017-Oct-17 23:00N 40°39' W 074°07'0 0.0
2017-Oct-17 22:30N 40°39' W 074°07'0 0.0
2017-Oct-17 22:00N 40°39' W 074°07'0 0.0
2017-Oct-17 21:30N 40°39' W 074°07'0 0.0
2017-Oct-17 21:00N 40°39' W 074°07'0 0.0
2017-Oct-17 20:30N 40°39' W 074°07'0 0.0
2017-Oct-17 20:00N 40°39' W 074°07'0 0.0
2017-Oct-17 19:30N 40°39' W 074°07'0 0.0
2017-Oct-17 19:00N 40°39' W 074°07'1 1.8
2017-Oct-17 18:30N 40°39' W 074°06'0 0.0
2017-Oct-17 18:00N 40°39' W 074°06'0 0.0
2017-Oct-17 17:30N 40°39' W 074°06'0 0.0
2017-Oct-17 17:00N 40°39' W 074°06'0 0.0
2017-Oct-17 16:30N 40°39' W 074°06'0 0.0
2017-Oct-17 16:00N 40°39' W 074°06'0 0.0
2017-Oct-17 15:30N 40°39' W 074°06'0 0.0
2017-Oct-17 15:00N 40°39' W 074°06'1 1.8
2017-Oct-17 14:30N 40°39' W 074°07'2 4.6
2017-Oct-17 14:00N 40°39' W 074°04'3 6.2
2017-Oct-17 13:30N 40°40' W 074°00'0 0.0
2017-Oct-17 13:00N 40°40' W 074°00'0 0.0
2017-Oct-17 12:30N 40°40' W 074°00'0 0.0
2017-Oct-17 12:00N 40°40' W 074°00'0 0.0
2017-Oct-17 11:30N 40°40' W 074°00'0 0.0
2017-Oct-17 11:00N 40°40' W 074°00'0 0.0
2017-Oct-17 10:30N 40°40' W 074°00'0 0.0
2017-Oct-17 10:00N 40°40' W 074°00'0 0.0
2017-Oct-17 09:30N 40°40' W 074°00'0 0.0
2017-Oct-17 09:00N 40°40' W 074°00'0 0.0
2017-Oct-17 08:30N 40°40' W 074°00'0 0.0
2017-Oct-17 08:00N 40°40' W 074°00'0 0.0
2017-Oct-17 07:30N 40°40' W 074°00'3 6.6
2017-Oct-17 07:00N 40°39' W 074°04'2 4.2
2017-Oct-17 06:30N 40°39' W 074°07'0 0.4
2017-Oct-17 06:00N 40°39' W 074°07'0 0.3
2017-Oct-17 05:30N 40°39' W 074°06'1 1.2
2017-Oct-17 05:01N 40°39' W 074°06'3 5.3
2017-Oct-17 04:30N 40°40' W 074°03'5 9.3
2017-Oct-17 04:00N 40°45' W 074°01'3 6.0
2017-Oct-17 03:30N 40°47' W 073°59'0 0.1
2017-Oct-17 03:00N 40°47' W 073°59'0 0.0
2017-Oct-17 02:30N 40°47' W 073°59'0 0.0
2017-Oct-17 02:00N 40°47' W 073°59'0 0.4
2017-Oct-17 01:30N 40°48' W 073°59'0 0.1
2017-Oct-17 01:00N 40°48' W 073°59'0 0.0
2017-Oct-17 00:30N 40°48' W 073°59'0 0.0
2017-Oct-17 00:00N 40°48' W 073°59'0 0.0
2017-Oct-16 23:30N 40°48' W 073°59'0 0.0
2017-Oct-16 23:00N 40°48' W 073°59'0 0.0
2017-Oct-16 22:30N 40°48' W 073°59'0 0.1
2017-Oct-16 22:00N 40°48' W 073°59'0 0.2
2017-Oct-16 21:30N 40°48' W 073°59'0 0.1
2017-Oct-16 21:00N 40°48' W 073°59'0 0.0
2017-Oct-16 20:30N 40°48' W 073°59'0 0.1
2017-Oct-16 20:00N 40°48' W 073°59'0 0.0
2017-Oct-16 19:30N 40°48' W 073°59'0 0.1
2017-Oct-16 19:00N 40°48' W 073°59'0 0.0
2017-Oct-16 18:30N 40°48' W 073°59'0 0.0
2017-Oct-16 18:00N 40°48' W 073°59'0 0.0
2017-Oct-16 17:30N 40°48' W 073°59'0 0.0
2017-Oct-16 17:00N 40°48' W 073°59'0 0.0
2017-Oct-16 16:30N 40°48' W 073°59'0 0.0
2017-Oct-16 16:00N 40°48' W 073°59'0 0.0
2017-Oct-16 15:30N 40°48' W 073°59'0 0.0
2017-Oct-16 15:00N 40°48' W 073°59'0 0.0
2017-Oct-16 14:00N 40°48' W 073°59'0 0.1
2017-Oct-16 13:30N 40°48' W 073°59'0 0.1
2017-Oct-16 13:00N 40°48' W 073°59'0 0.2
2017-Oct-16 12:30N 40°48' W 073°59'0 0.0
2017-Oct-16 12:00N 40°48' W 073°59'0 0.1
2017-Oct-16 11:30N 40°48' W 073°59'0 0.0
2017-Oct-16 11:00N 40°48' W 073°59'0 0.0
2017-Oct-16 10:30N 40°48' W 073°59'0 0.1
2017-Oct-16 10:00N 40°48' W 073°59'0 0.0
2017-Oct-16 09:30N 40°48' W 073°59'0 0.0
2017-Oct-16 09:00N 40°48' W 073°59'0 0.1
2017-Oct-16 08:30N 40°48' W 073°59'0 0.1
2017-Oct-16 08:00N 40°48' W 073°59'0 0.0
2017-Oct-16 07:30N 40°48' W 073°59'0 0.1
2017-Oct-16 07:00N 40°48' W 073°59'0 0.0
2017-Oct-16 06:30N 40°48' W 073°59'0 0.0
2017-Oct-16 06:00N 40°48' W 073°59'0 0.0
2017-Oct-16 05:30N 40°48' W 073°59'0 0.0
2017-Oct-16 05:00N 40°48' W 073°59'0 0.0
2017-Oct-16 04:30N 40°48' W 073°59'0 0.0
2017-Oct-16 04:00N 40°48' W 073°59'0 0.0
2017-Oct-16 03:30N 40°48' W 073°59'0 0.2
2017-Oct-16 02:30N 40°48' W 073°59'0 0.0
2017-Oct-16 02:00N 40°48' W 073°59'0 0.0
2017-Oct-16 01:30N 40°48' W 073°59'0 0.0
2017-Oct-16 01:00N 40°48' W 073°59'2 4.7
2017-Oct-16 00:30N 40°46' W 074°01'4 7.3
2017-Oct-16 00:00N 40°42' W 074°00'4 7.0
2017-Oct-15 23:30N 40°45' W 073°58'3 6.6
2017-Oct-15 23:00N 40°48' W 073°55'3 6.1
2017-Oct-15 22:30N 40°48' W 073°51'3 6.1
2017-Oct-15 21:59N 40°49' W 073°47'6 0.4
2017-Oct-15 04:46N 40°54' W 073°42'4 8.4
2017-Oct-15 04:15N 40°51' W 073°46'3 8.0
2017-Oct-15 03:53N 40°48' W 073°47'3 7.7
2017-Oct-15 03:30N 40°48' W 073°51'3 5.0
2017-Oct-15 03:00N 40°48' W 073°54'0 0.0
2017-Oct-15 02:30N 40°48' W 073°54'0 0.0
2017-Oct-15 02:00N 40°48' W 073°54'0 0.0
2017-Oct-15 01:30N 40°48' W 073°54'0 0.0
2017-Oct-15 01:00N 40°48' W 073°54'0 0.0
2017-Oct-15 00:30N 40°48' W 073°54'0 0.0
2017-Oct-15 00:00N 40°48' W 073°54'0 0.0
2017-Oct-14 23:29N 40°48' W 073°54'0 0.0
2017-Oct-14 23:00N 40°48' W 073°54'0 0.0
2017-Oct-14 21:42N 40°48' W 073°54'0 0.0
2017-Oct-14 21:30N 40°48' W 073°54'0 0.0
2017-Oct-14 20:46N 40°48' W 073°54'0 0.0
2017-Oct-14 20:29N 40°48' W 073°54'0 0.0
2017-Oct-14 20:00N 40°48' W 073°54'0 0.0
2017-Oct-14 19:30N 40°48' W 073°54'0 0.0
2017-Oct-14 19:00N 40°48' W 073°54'0 0.0
2017-Oct-14 18:28N 40°48' W 073°54'0 0.0
2017-Oct-14 18:00N 40°48' W 073°54'0 0.0
2017-Oct-14 17:29N 40°48' W 073°54'0 0.0
2017-Oct-14 16:53N 40°48' W 073°54'0 0.5
2017-Oct-14 16:29N 40°48' W 073°55'4 7.5
2017-Oct-14 16:00N 40°45' W 073°58'3 6.2
2017-Oct-14 15:30N 40°42' W 073°60'3 6.5
2017-Oct-14 15:00N 40°40' W 074°02'0 0.6
2017-Oct-14 14:30N 40°40' W 074°03'0 0.0
2017-Oct-14 14:00N 40°40' W 074°03'0 0.0
2017-Oct-14 13:30N 40°40' W 074°03'0 0.1
2017-Oct-14 13:00N 40°40' W 074°03'0 0.1
2017-Oct-14 12:30N 40°40' W 074°03'0 0.0
2017-Oct-14 12:00N 40°40' W 074°03'0 0.0
2017-Oct-14 11:30N 40°40' W 074°03'0 0.0
2017-Oct-14 11:00N 40°40' W 074°03'0 0.1
2017-Oct-14 10:30N 40°40' W 074°03'0 0.2
2017-Oct-14 10:00N 40°40' W 074°03'1 3.0
2017-Oct-14 09:30N 40°39' W 074°05'3 7.0
2017-Oct-14 09:00N 40°39' W 074°09'3 5.0
2017-Oct-14 08:30N 40°38' W 074°12'1 2.9
2017-Oct-14 08:00N 40°36' W 074°12'0 0.0
2017-Oct-14 07:30N 40°36' W 074°12'0 0.0
2017-Oct-14 07:00N 40°36' W 074°12'0 0.0
2017-Oct-14 06:30N 40°36' W 074°12'0 0.0
2017-Oct-14 06:00N 40°36' W 074°12'0 0.0
2017-Oct-14 05:30N 40°36' W 074°12'0 0.0
2017-Oct-14 04:59N 40°36' W 074°12'0 0.0
2017-Oct-14 04:30N 40°36' W 074°12'0 0.0
2017-Oct-14 04:00N 40°36' W 074°12'0 0.0
2017-Oct-14 03:30N 40°36' W 074°12'0 0.0
2017-Oct-14 03:00N 40°36' W 074°12'0 0.0
2017-Oct-14 02:30N 40°36' W 074°12'0 0.0
2017-Oct-14 02:00N 40°36' W 074°12'0 0.0
2017-Oct-14 01:30N 40°36' W 074°12'0 0.0
2017-Oct-14 01:00N 40°36' W 074°12'0 0.0
2017-Oct-14 00:29N 40°36' W 074°12'0 0.0
2017-Oct-14 00:00N 40°36' W 074°12'0 0.0
2017-Oct-13 23:30N 40°36' W 074°12'0 0.0
2017-Oct-13 23:00N 40°36' W 074°12'0 0.0
2017-Oct-13 22:30N 40°36' W 074°12'0 0.0
2017-Oct-13 22:00N 40°36' W 074°12'0 0.0
2017-Oct-13 21:30N 40°36' W 074°12'0 0.0
2017-Oct-13 21:00N 40°36' W 074°12'0 0.0
2017-Oct-13 20:30N 40°36' W 074°12'0 0.0
2017-Oct-13 20:00N 40°36' W 074°12'0 0.0
2017-Oct-13 19:30N 40°36' W 074°12'0 0.0
2017-Oct-13 19:00N 40°36' W 074°12'0 0.0
2017-Oct-13 18:30N 40°36' W 074°12'0 0.0
2017-Oct-13 18:00N 40°36' W 074°12'0 0.1
2017-Oct-13 17:30N 40°36' W 074°12'2 4.3
2017-Oct-13 17:00N 40°34' W 074°13'1 2.1
2017-Oct-13 16:26N 40°35' W 074°12'1 2.1
2017-Oct-13 15:59N 40°36' W 074°12'2 3.9
2017-Oct-13 15:30N 40°38' W 074°12'2 4.3
2017-Oct-13 15:00N 40°39' W 074°09'3 6.9
2017-Oct-13 14:30N 40°39' W 074°05'4 8.9
2017-Oct-13 14:00N 40°43' W 074°02'510.6
2017-Oct-13 13:30N 40°48' W 073°59'510.5
2017-Oct-13 13:00N 40°53' W 073°56'3 0.1
2017-Oct-11 18:53N 40°55' W 073°55'4 9.2
2017-Oct-11 18:30N 40°52' W 073°56'5 9.7
2017-Oct-11 18:00N 40°48' W 073°59'5 9.3
2017-Oct-11 17:30N 40°43' W 074°01'4 8.7
2017-Oct-11 17:00N 40°39' W 074°04'1 0.1
2017-Oct-11 00:00N 40°39' W 074°05'1 2.1
2017-Oct-10 23:30N 40°39' W 074°04'2 3.7
2017-Oct-10 23:00N 40°40' W 074°03'5 9.7
2017-Oct-10 22:30N 40°44' W 073°58'5 9.8
2017-Oct-10 22:00N 40°48' W 073°55'0 0.6
2017-Oct-10 21:30N 40°48' W 073°54'3 6.7
2017-Oct-10 21:00N 40°46' W 073°57'4 7.1
2017-Oct-10 20:30N 40°42' W 073°59'4 7.2
2017-Oct-10 20:00N 40°40' W 074°03'0 0.0
2017-Oct-10 19:30N 40°40' W 074°03'0 0.1
2017-Oct-10 19:00N 40°40' W 074°03'2 4.8
2017-Oct-10 18:30N 40°42' W 074°00'4 8.2
2017-Oct-10 18:00N 40°45' W 073°58'4 7.2
2017-Oct-10 17:30N 40°48' W 073°54'3 5.3
2017-Oct-10 17:00N 40°48' W 073°51'3 5.6
2017-Oct-10 16:30N 40°48' W 073°47'2 0.1
2017-Oct-09 11:14N 40°50' W 073°46'2 8.2
2017-Oct-09 10:58N 40°48' W 073°47'4 8.0
2017-Oct-09 10:30N 40°48' W 073°52'3 5.9
2017-Oct-09 10:00N 40°47' W 073°56'2 4.2
2017-Oct-09 09:30N 40°45' W 073°58'2 4.9
2017-Oct-09 09:00N 40°43' W 073°58'2 4.5
2017-Oct-09 08:30N 40°41' W 074°00'3 5.3
2017-Oct-09 08:00N 40°40' W 074°03'3 5.1
2017-Oct-09 07:30N 40°39' W 074°06'3 6.6
2017-Oct-09 07:00N 40°39' W 074°11'3 5.3
2017-Oct-09 06:30N 40°36' W 074°12'1 0.2
2017-Oct-09 01:50N 40°35' W 074°12'0 0.0
2017-Oct-09 01:25N 40°35' W 074°12'0 0.2
2017-Oct-09 00:58N 40°35' W 074°12'0 0.2
2017-Oct-09 00:29N 40°35' W 074°12'0 0.0
2017-Oct-08 23:20N 40°35' W 074°12'0 0.0
2017-Oct-08 23:00N 40°35' W 074°12'0 0.0
2017-Oct-08 22:29N 40°35' W 074°12'0 0.0
2017-Oct-08 21:59N 40°35' W 074°12'0 0.0
2017-Oct-08 21:29N 40°35' W 074°12'0 0.0
2017-Oct-08 21:00N 40°35' W 074°12'0 0.0
2017-Oct-08 20:30N 40°35' W 074°12'0 0.0
2017-Oct-08 20:00N 40°35' W 074°12'0 0.0
2017-Oct-08 19:30N 40°35' W 074°12'0 0.0
2017-Oct-08 19:00N 40°35' W 074°12'0 0.0
2017-Oct-08 18:29N 40°35' W 074°12'0 0.0
2017-Oct-08 17:59N 40°35' W 074°12'0 0.0
2017-Oct-08 17:28N 40°35' W 074°12'0 0.0
2017-Oct-08 16:58N 40°35' W 074°12'0 0.3
2017-Oct-08 16:18N 40°35' W 074°12'2 5.3
2017-Oct-08 16:00N 40°37' W 074°12'3 6.1
2017-Oct-08 15:30N 40°39' W 074°09'4 7.9
2017-Oct-08 15:00N 40°42' W 074°07'1 1.3
2017-Oct-08 14:30N 40°43' W 074°07'0 0.0
2017-Oct-08 14:00N 40°43' W 074°07'0 0.0
2017-Oct-08 13:30N 40°43' W 074°07'0 0.0
2017-Oct-08 13:00N 40°43' W 074°07'0 0.0
2017-Oct-08 12:30N 40°43' W 074°07'0 0.0
2017-Oct-08 12:00N 40°43' W 074°07'0 0.0
2017-Oct-08 11:30N 40°43' W 074°07'0 0.0
2017-Oct-08 11:00N 40°43' W 074°07'0 0.0
2017-Oct-08 10:30N 40°43' W 074°07'0 0.0
2017-Oct-08 10:00N 40°43' W 074°07'0 0.0
2017-Oct-08 09:30N 40°43' W 074°07'0 0.0
2017-Oct-08 09:00N 40°43' W 074°07'0 0.0
2017-Oct-08 08:30N 40°43' W 074°07'0 0.0
2017-Oct-08 08:00N 40°43' W 074°07'0 0.0
2017-Oct-08 07:30N 40°43' W 074°07'0 0.0
2017-Oct-08 07:00N 40°43' W 074°07'0 0.0
2017-Oct-08 06:30N 40°43' W 074°07'0 0.0
2017-Oct-08 06:00N 40°43' W 074°07'0 0.0
2017-Oct-08 05:30N 40°43' W 074°07'0 0.0
2017-Oct-08 05:00N 40°43' W 074°07'0 0.0
2017-Oct-08 04:30N 40°43' W 074°07'0 0.0
2017-Oct-08 04:00N 40°43' W 074°07'0 0.0
2017-Oct-08 03:30N 40°43' W 074°07'0 0.0
2017-Oct-08 03:00N 40°43' W 074°07'0 0.6
2017-Oct-08 02:30N 40°43' W 074°07'  

Dump ship's entire track history